createdAt,value
2017-11-30T00:02:10.601Z,26.07
2017-11-30T00:04:38.060Z,27.27
2017-11-30T00:07:05.569Z,27.27
2017-11-30T00:09:33.044Z,27.23
2017-11-30T00:12:00.595Z,27.30
2017-11-30T00:14:28.075Z,29.57
2017-11-30T00:16:55.549Z,28.93
2017-11-30T00:19:23.033Z,29.17
2017-11-30T00:21:50.585Z,27.83
2017-11-30T00:24:18.076Z,27.00
2017-11-30T00:26:45.544Z,30.10
2017-11-30T00:29:13.045Z,26.20
2017-11-30T00:31:40.507Z,28.03
2017-11-30T00:34:07.993Z,27.73
2017-11-30T00:36:35.504Z,26.77
2017-11-30T00:39:02.988Z,28.97
2017-11-30T00:41:30.455Z,28.87
2017-11-30T00:44:09.723Z,28.10
2017-11-30T00:46:37.178Z,30.23
2017-11-30T00:49:04.645Z,28.07
2017-11-30T00:51:32.154Z,23.53
2017-11-30T00:53:59.658Z,24.27
2017-11-30T00:56:27.139Z,26.00
2017-11-30T00:58:54.612Z,25.53
2017-11-30T01:01:22.096Z,30.10
2017-11-30T01:03:49.560Z,25.60
2017-11-30T01:06:17.044Z,24.33
2017-11-30T01:08:44.508Z,28.77
2017-11-30T01:11:11.969Z,26.93
2017-11-30T01:13:40.001Z,28.50
2017-11-30T01:16:07.462Z,26.67
2017-11-30T01:18:34.945Z,30.03
2017-11-30T01:21:03.442Z,25.63
2017-11-30T01:23:30.930Z,29.50
2017-11-30T01:25:58.448Z,25.43
2017-11-30T01:28:25.952Z,24.83
2017-11-30T01:30:53.969Z,23.60
2017-11-30T01:33:21.531Z,24.10
2017-11-30T01:35:48.996Z,27.07
2017-11-30T01:38:16.583Z,26.40
2017-11-30T01:40:44.094Z,27.33
2017-11-30T01:43:11.580Z,25.55
2017-11-30T01:45:42.956Z,27.30
2017-11-30T01:48:10.445Z,25.08
2017-11-30T01:50:37.897Z,24.57
2017-11-30T01:53:05.381Z,23.90
2017-11-30T01:55:32.857Z,30.47
2017-11-30T01:58:01.185Z,30.60
2017-11-30T02:00:29.812Z,24.53
2017-11-30T02:02:57.283Z,25.67
2017-11-30T02:05:24.780Z,26.55
2017-11-30T02:07:52.272Z,23.75
2017-11-30T02:10:19.772Z,23.62
2017-11-30T02:12:47.232Z,25.83
2017-11-30T02:15:14.816Z,22.87
2017-11-30T02:17:42.271Z,24.00
2017-11-30T02:20:09.820Z,23.37
2017-11-30T02:22:37.303Z,23.27
2017-11-30T02:25:04.782Z,21.73
2017-11-30T02:27:32.279Z,22.20
2017-11-30T02:29:59.737Z,18.80
2017-11-30T02:32:27.224Z,19.20
2017-11-30T02:34:54.681Z,24.35
2017-11-30T02:37:22.236Z,23.73
2017-11-30T02:39:49.708Z,21.17
2017-11-30T02:42:17.207Z,23.83
2017-11-30T02:44:44.685Z,20.17
2017-11-30T02:47:12.158Z,20.33
2017-11-30T02:49:39.602Z,20.00
2017-11-30T02:52:07.097Z,22.37
2017-11-30T02:54:34.581Z,23.53
2017-11-30T02:57:02.066Z,19.65
2017-11-30T02:59:29.558Z,23.60
2017-11-30T03:01:57.020Z,19.07
2017-11-30T03:04:24.468Z,20.10
2017-11-30T03:06:52.263Z,20.37
2017-11-30T03:09:19.758Z,21.07
2017-11-30T03:11:47.227Z,17.57
2017-11-30T03:14:14.754Z,19.87
2017-11-30T03:16:42.205Z,19.13
2017-11-30T03:19:09.690Z,20.07
2017-11-30T03:21:37.173Z,18.27
2017-11-30T03:24:05.119Z,23.48
2017-11-30T03:26:32.583Z,22.50
2017-11-30T03:29:00.048Z,21.80
2017-11-30T03:31:27.527Z,22.45
2017-11-30T03:33:54.984Z,21.35
2017-11-30T03:36:22.456Z,26.27
2017-11-30T03:38:49.925Z,26.62
2017-11-30T03:41:17.387Z,26.65
2017-11-30T03:43:44.887Z,24.10
2017-11-30T03:46:12.354Z,21.25
2017-11-30T03:48:39.829Z,25.05
2017-11-30T03:51:07.321Z,20.52
2017-11-30T03:53:34.789Z,28.75
2017-11-30T03:56:02.291Z,25.25
2017-11-30T03:58:29.752Z,25.42
2017-11-30T04:00:57.222Z,27.25
2017-11-30T04:03:24.714Z,22.20
2017-11-30T04:05:52.170Z,23.23
2017-11-30T04:08:19.638Z,21.30
2017-11-30T04:10:47.136Z,23.85
2017-11-30T04:13:16.005Z,26.00
2017-11-30T04:15:43.599Z,21.85
2017-11-30T04:18:11.558Z,19.33
2017-11-30T04:20:39.067Z,26.05
2017-11-30T04:23:06.546Z,24.63
2017-11-30T04:25:34.009Z,28.40
2017-11-30T04:28:01.461Z,24.67
2017-11-30T04:30:29.097Z,24.35
2017-11-30T04:32:56.548Z,24.87
2017-11-30T04:35:24.012Z,25.42
2017-11-30T04:40:25.196Z,20.23
2017-11-30T04:42:52.689Z,21.37
2017-11-30T04:45:20.146Z,20.08
2017-11-30T04:47:47.610Z,20.02
2017-11-30T04:50:15.151Z,17.52
2017-11-30T04:52:42.781Z,21.05
2017-11-30T04:55:10.234Z,17.33
2017-11-30T04:57:37.714Z,18.70
2017-11-30T05:00:05.184Z,17.73
2017-11-30T05:02:32.643Z,17.52
2017-11-30T05:05:00.661Z,15.85
2017-11-30T05:07:28.123Z,18.20
2017-11-30T05:09:55.589Z,15.07
2017-11-30T05:12:23.130Z,16.40
2017-11-30T05:14:50.592Z,15.65
2017-11-30T05:17:18.042Z,17.05
2017-11-30T05:19:45.529Z,15.80
2017-11-30T05:22:13.010Z,18.62
2017-11-30T05:24:40.486Z,15.98
2017-11-30T05:27:07.983Z,16.60
2017-11-30T05:29:35.444Z,17.25
2017-11-30T05:32:02.925Z,16.52
2017-11-30T05:34:30.410Z,15.65
2017-11-30T05:36:57.938Z,14.00
2017-11-30T05:39:25.414Z,14.90
2017-11-30T05:41:52.869Z,15.30
2017-11-30T05:44:20.346Z,15.60
2017-11-30T05:46:47.829Z,15.25
2017-11-30T05:49:15.325Z,14.05
2017-11-30T05:51:42.788Z,14.80
2017-11-30T05:54:10.273Z,14.63
2017-11-30T05:56:37.750Z,14.50
2017-11-30T05:59:05.212Z,15.35
2017-11-30T06:01:32.670Z,12.60
2017-11-30T06:04:00.152Z,14.32
2017-11-30T06:06:27.641Z,14.15
2017-11-30T06:08:55.156Z,15.30
2017-11-30T06:11:22.634Z,17.58
2017-11-30T06:13:50.100Z,14.25
2017-11-30T06:16:17.867Z,16.33
2017-11-30T06:18:48.505Z,10.55
2017-11-30T06:21:16.692Z,14.25
2017-11-30T06:23:44.170Z,17.52
2017-11-30T06:26:11.642Z,9.82
2017-11-30T06:28:40.225Z,8.70
2017-11-30T06:31:07.744Z,10.00
2017-11-30T06:33:35.204Z,8.35
2017-11-30T06:36:02.688Z,8.35
2017-11-30T06:38:30.185Z,15.20
2017-11-30T06:40:57.649Z,9.27
2017-11-30T06:43:25.129Z,8.57
2017-11-30T06:45:52.597Z,8.70
2017-11-30T06:48:20.067Z,7.50
2017-11-30T06:50:47.553Z,8.40
2017-11-30T06:53:15.024Z,7.10
2017-11-30T06:55:42.501Z,7.95
2017-11-30T06:58:09.980Z,8.35
2017-11-30T07:00:37.484Z,10.60
2017-11-30T07:03:05.047Z,5.57
2017-11-30T07:05:32.537Z,7.85
2017-11-30T07:07:59.985Z,8.73
2017-11-30T07:10:27.463Z,7.30
2017-11-30T07:12:54.919Z,9.53
2017-11-30T07:15:22.389Z,7.05
2017-11-30T07:17:49.874Z,7.57
2017-11-30T07:20:17.545Z,7.70
2017-11-30T07:22:45.036Z,8.70
2017-11-30T07:25:12.492Z,7.80
2017-11-30T07:27:39.991Z,7.80
2017-11-30T07:30:07.469Z,5.97
2017-11-30T07:32:35.726Z,8.52
2017-11-30T07:35:03.201Z,5.40
2017-11-30T07:37:30.716Z,6.78
2017-11-30T07:39:58.226Z,5.97
2017-11-30T07:42:25.693Z,7.40
2017-11-30T07:44:53.165Z,6.10
2017-11-30T07:47:20.649Z,8.20
2017-11-30T07:49:48.100Z,6.97
2017-11-30T07:52:15.648Z,6.18
2017-11-30T07:54:43.217Z,5.90
2017-11-30T07:57:10.682Z,5.60
2017-11-30T07:59:38.173Z,6.17
2017-11-30T08:02:05.642Z,7.70
2017-11-30T08:04:33.257Z,5.20
2017-11-30T08:07:00.705Z,4.47
2017-11-30T08:09:28.141Z,4.70
2017-11-30T08:11:55.634Z,4.47
2017-11-30T08:14:23.075Z,4.47
2017-11-30T08:16:50.525Z,4.22
2017-11-30T08:19:17.984Z,3.73
2017-11-30T08:21:45.456Z,3.33
2017-11-30T08:24:12.931Z,3.23
2017-11-30T08:26:41.308Z,2.60
2017-11-30T08:29:09.286Z,3.00
2017-11-30T08:31:36.814Z,3.23
2017-11-30T08:34:04.410Z,3.00
2017-11-30T08:36:32.424Z,3.47
2017-11-30T08:38:59.909Z,4.10
2017-11-30T08:41:27.352Z,5.07
2017-11-30T08:43:54.873Z,5.47
2017-11-30T08:46:22.384Z,3.80
2017-11-30T08:48:50.120Z,4.17
2017-11-30T08:51:18.148Z,5.20
2017-11-30T08:53:45.599Z,4.00
2017-11-30T08:56:13.054Z,4.73
2017-11-30T08:58:40.514Z,3.70
2017-11-30T09:01:07.961Z,4.13
2017-11-30T09:03:35.409Z,3.80
2017-11-30T09:06:02.881Z,3.93
2017-11-30T09:08:30.322Z,3.40
2017-11-30T09:10:57.801Z,3.70
2017-11-30T09:13:25.277Z,6.60
2017-11-30T09:15:52.739Z,4.00
2017-11-30T09:18:20.184Z,5.63
2017-11-30T09:20:47.629Z,4.60
2017-11-30T09:23:15.098Z,3.50
2017-11-30T09:25:42.604Z,4.97
2017-11-30T09:28:10.084Z,4.63
2017-11-30T09:30:37.529Z,4.33
2017-11-30T09:33:04.987Z,4.97
2017-11-30T09:35:32.446Z,4.33
2017-11-30T09:37:59.927Z,4.63
2017-11-30T09:40:27.383Z,7.60
2017-11-30T09:42:54.827Z,6.50
2017-11-30T09:45:22.285Z,4.93
2017-11-30T09:47:49.750Z,5.60
2017-11-30T09:50:17.257Z,5.00
2017-11-30T09:52:44.764Z,7.53
2017-11-30T09:55:12.225Z,6.30
2017-11-30T09:57:39.675Z,5.23
2017-11-30T10:00:07.138Z,5.37
2017-11-30T10:02:35.531Z,4.67
2017-11-30T10:05:02.984Z,6.00
2017-11-30T10:07:30.461Z,6.20
2017-11-30T10:09:57.905Z,3.87
2017-11-30T10:12:25.376Z,3.37
2017-11-30T10:14:52.872Z,4.40
2017-11-30T10:17:20.318Z,3.93
2017-11-30T10:19:47.764Z,5.00
2017-11-30T10:22:15.428Z,3.70
2017-11-30T10:24:43.126Z,3.20
2017-11-30T10:27:10.608Z,4.17
2017-11-30T10:29:38.072Z,2.93
2017-11-30T10:32:05.546Z,3.40
2017-11-30T10:34:33.238Z,12.43
2017-11-30T10:37:00.695Z,20.83
2017-11-30T10:39:28.191Z,4.60
2017-11-30T10:41:55.663Z,3.20
2017-11-30T10:44:23.126Z,3.93
2017-11-30T10:46:50.577Z,3.40
2017-11-30T10:49:18.030Z,3.50
2017-11-30T10:51:45.487Z,4.03
2017-11-30T10:54:12.922Z,3.63
2017-11-30T10:56:40.409Z,4.60
2017-11-30T10:59:07.866Z,4.17
2017-11-30T11:01:35.295Z,4.50
2017-11-30T11:04:02.772Z,3.80
2017-11-30T11:06:30.290Z,3.73
2017-11-30T11:08:57.738Z,3.70
2017-11-30T11:11:25.193Z,3.97
2017-11-30T11:13:52.628Z,7.33
2017-11-30T11:16:20.062Z,3.97
2017-11-30T11:18:47.520Z,3.70
2017-11-30T11:21:15.026Z,3.20
2017-11-30T11:23:42.495Z,3.90
2017-11-30T11:26:09.954Z,4.97
2017-11-30T11:28:37.397Z,3.87
2017-11-30T11:31:04.897Z,4.30
2017-11-30T11:33:32.340Z,4.70
2017-11-30T11:35:59.788Z,6.57
2017-11-30T11:38:27.237Z,4.77
2017-11-30T11:40:54.672Z,4.43
2017-11-30T11:43:22.122Z,7.63
2017-11-30T11:45:49.577Z,3.67
2017-11-30T11:48:17.021Z,4.17
2017-11-30T11:50:44.474Z,3.37
2017-11-30T11:53:11.932Z,4.00
2017-11-30T11:55:39.383Z,3.03
2017-11-30T11:58:06.867Z,3.60
2017-11-30T12:00:34.301Z,5.90
2017-11-30T12:03:01.742Z,2.90
2017-11-30T12:05:29.210Z,8.70
2017-11-30T12:07:56.667Z,2.93
2017-11-30T12:10:24.613Z,3.67
2017-11-30T12:12:52.256Z,2.37
2017-11-30T12:15:19.697Z,3.67
2017-11-30T12:17:47.140Z,3.30
2017-11-30T12:20:14.805Z,5.60
2017-11-30T12:22:42.245Z,4.60
2017-11-30T12:25:09.745Z,3.43
2017-11-30T12:27:37.382Z,4.00
2017-11-30T12:30:04.870Z,2.50
2017-11-30T12:32:32.371Z,2.80
2017-11-30T12:34:59.855Z,6.37
2017-11-30T12:37:27.357Z,2.40
2017-11-30T12:39:54.860Z,2.27
2017-11-30T12:42:22.352Z,9.57
2017-11-30T12:44:49.851Z,3.30
2017-11-30T12:47:17.341Z,1.60
2017-11-30T12:49:44.806Z,4.90
2017-11-30T12:52:12.393Z,2.30
2017-11-30T12:54:39.817Z,2.47
2017-11-30T12:59:34.853Z,4.60
2017-11-30T13:02:02.353Z,3.80
2017-11-30T13:04:29.862Z,3.90
2017-11-30T13:06:57.322Z,3.80
2017-11-30T13:09:24.887Z,3.57
2017-11-30T13:11:52.449Z,3.90
2017-11-30T13:14:20.204Z,4.80
2017-11-30T13:16:47.655Z,6.30
2017-11-30T13:19:15.140Z,4.60
2017-11-30T13:21:42.610Z,4.80
2017-11-30T13:24:10.081Z,4.60
2017-11-30T13:26:38.901Z,5.90
2017-11-30T13:29:08.390Z,5.47
2017-11-30T13:31:36.157Z,4.37
2017-11-30T13:34:03.633Z,4.63
2017-11-30T13:36:31.201Z,4.33
2017-11-30T13:38:58.692Z,8.73
2017-11-30T13:41:26.124Z,6.83
2017-11-30T13:43:53.598Z,7.50
2017-11-30T13:46:21.076Z,6.73
2017-11-30T13:48:48.854Z,8.67
2017-11-30T13:51:17.725Z,8.73
2017-11-30T13:53:45.266Z,8.85
2017-11-30T13:56:12.733Z,9.00
2017-11-30T13:58:40.226Z,13.07
2017-11-30T14:01:07.686Z,10.80
2017-11-30T14:03:35.170Z,10.60
2017-11-30T14:06:02.642Z,11.82
2017-11-30T14:08:30.173Z,11.50
2017-11-30T14:10:57.685Z,11.02
2017-11-30T14:13:25.144Z,12.63
2017-11-30T14:15:53.224Z,11.20
2017-11-30T14:18:20.679Z,13.70
2017-11-30T14:20:48.195Z,12.03
2017-11-30T14:23:15.715Z,13.50
2017-11-30T14:25:43.230Z,15.90
2017-11-30T14:28:10.682Z,12.00
2017-11-30T14:30:38.696Z,11.43
2017-11-30T14:33:06.163Z,15.00
2017-11-30T14:35:33.705Z,13.07
2017-11-30T14:38:01.219Z,14.37
2017-11-30T14:40:28.719Z,12.37
2017-11-30T14:42:57.887Z,11.47
2017-11-30T14:45:25.502Z,13.90
2017-11-30T14:47:53.064Z,13.33
2017-11-30T14:50:20.733Z,15.23
2017-11-30T14:52:48.272Z,14.00
2017-11-30T14:55:15.821Z,15.35
2017-11-30T14:57:43.330Z,12.80
2017-11-30T15:00:10.826Z,15.98
2017-11-30T15:02:38.401Z,18.92
2017-11-30T15:05:05.902Z,15.35
2017-11-30T15:07:33.411Z,21.00
2017-11-30T15:10:01.028Z,18.40
2017-11-30T15:12:28.484Z,15.68
2017-11-30T15:14:55.992Z,20.12
2017-11-30T15:17:23.459Z,21.00
2017-11-30T15:19:51.095Z,21.00
2017-11-30T15:22:18.632Z,20.95
2017-11-30T15:24:46.943Z,20.45
2017-11-30T15:27:14.409Z,20.33
2017-11-30T15:29:41.871Z,22.37
2017-11-30T15:32:09.353Z,22.20
2017-11-30T15:34:36.843Z,23.67
2017-11-30T15:37:04.391Z,22.08
2017-11-30T15:39:31.847Z,21.97
2017-11-30T15:41:59.361Z,20.92
2017-11-30T15:44:26.844Z,18.12
2017-11-30T15:46:54.324Z,22.70
2017-11-30T15:49:21.821Z,22.90
2017-11-30T15:51:49.276Z,20.73
2017-11-30T15:54:16.807Z,20.80
2017-11-30T15:56:44.356Z,22.25
2017-11-30T15:59:11.854Z,25.92
2017-11-30T16:01:39.387Z,27.13
2017-11-30T16:04:06.904Z,23.80
2017-11-30T16:06:34.429Z,22.80
2017-11-30T16:09:01.971Z,23.57
2017-11-30T16:11:29.577Z,33.90
2017-11-30T16:13:57.117Z,26.30
2017-11-30T16:16:24.737Z,25.60
2017-11-30T16:18:52.310Z,24.87
2017-11-30T16:23:57.596Z,23.43
2017-11-30T16:26:25.080Z,23.17
2017-11-30T16:28:53.532Z,25.17
2017-11-30T16:31:23.846Z,28.27
2017-11-30T16:33:51.289Z,23.80
2017-11-30T16:36:18.800Z,25.83
2017-11-30T16:38:46.353Z,24.50
2017-11-30T16:41:13.859Z,23.40
2017-11-30T16:43:41.380Z,27.70
2017-11-30T16:46:08.943Z,24.90
2017-11-30T16:48:36.585Z,24.40
2017-11-30T16:51:04.103Z,24.90
2017-11-30T16:53:31.616Z,19.33
2017-11-30T16:55:59.086Z,21.10
2017-11-30T16:58:26.576Z,23.80
2017-11-30T17:00:54.191Z,23.50
2017-11-30T17:03:21.704Z,23.17
2017-11-30T17:05:49.187Z,24.43
2017-11-30T17:08:16.678Z,27.43
2017-11-30T17:10:44.222Z,23.13
2017-11-30T17:13:11.703Z,21.40
2017-11-30T17:15:39.196Z,29.13
2017-11-30T17:18:06.695Z,22.60
2017-11-30T17:20:34.196Z,23.63
2017-11-30T17:23:01.667Z,25.90
2017-11-30T17:25:29.186Z,26.80
2017-11-30T17:27:56.632Z,25.83
2017-11-30T17:30:24.110Z,23.47
2017-11-30T17:32:51.596Z,26.60
2017-11-30T17:35:19.159Z,24.10
2017-11-30T17:37:46.619Z,27.00
2017-11-30T17:40:14.332Z,26.60
2017-11-30T17:42:41.848Z,27.73
2017-11-30T17:45:09.332Z,25.80
2017-11-30T17:47:36.813Z,27.97
2017-11-30T17:50:04.300Z,24.20
2017-11-30T17:52:31.772Z,23.93
2017-11-30T17:54:59.328Z,25.40
2017-11-30T17:57:26.808Z,25.37
2017-11-30T17:59:55.051Z,26.93
2017-11-30T18:02:22.643Z,27.37
2017-11-30T18:04:50.140Z,25.13
2017-11-30T18:07:17.736Z,23.83
2017-11-30T18:09:45.283Z,26.13
2017-11-30T18:12:12.821Z,25.23
2017-11-30T18:14:40.385Z,26.40
2017-11-30T18:17:07.899Z,23.63
2017-11-30T18:19:35.670Z,19.50
2017-11-30T18:22:03.243Z,19.70
2017-11-30T18:24:30.736Z,20.67
2017-11-30T18:26:58.216Z,19.73
2017-11-30T18:29:25.754Z,16.73
2017-11-30T18:31:53.251Z,19.77
2017-11-30T18:34:20.754Z,18.87
2017-11-30T18:36:48.229Z,16.50
2017-11-30T18:39:15.731Z,16.50
2017-11-30T18:41:43.216Z,19.40
2017-11-30T18:44:10.700Z,17.40
2017-11-30T18:46:38.189Z,18.10
2017-11-30T18:49:05.656Z,16.33
2017-11-30T18:51:33.112Z,15.03
2017-11-30T18:54:00.677Z,16.37
2017-11-30T18:56:28.189Z,15.67
2017-11-30T18:58:55.729Z,15.27
2017-11-30T19:01:23.321Z,16.53
2017-11-30T19:03:50.969Z,16.87
2017-11-30T19:06:18.514Z,16.53
2017-11-30T19:08:46.007Z,14.50
2017-11-30T19:11:13.459Z,15.63
2017-11-30T19:13:41.641Z,15.93
2017-11-30T19:16:09.172Z,14.03
2017-11-30T19:18:36.664Z,17.83
2017-11-30T19:21:04.151Z,13.07
2017-11-30T19:23:31.608Z,17.37
2017-11-30T19:25:59.220Z,14.70
2017-11-30T19:28:26.885Z,13.90
2017-11-30T19:30:54.373Z,14.10
2017-11-30T19:33:22.900Z,12.77
2017-11-30T19:35:50.504Z,12.53
2017-11-30T19:38:18.240Z,16.20
2017-11-30T19:40:45.790Z,13.83
2017-11-30T19:43:13.292Z,11.50
2017-11-30T19:45:40.810Z,14.43
2017-11-30T19:48:08.331Z,14.03
2017-11-30T19:50:35.831Z,14.53
2017-11-30T19:53:03.308Z,11.47
2017-11-30T19:55:30.803Z,10.70
2017-11-30T19:57:58.340Z,12.50
2017-11-30T20:00:25.826Z,13.17
2017-11-30T20:02:54.182Z,14.03
2017-11-30T20:05:21.667Z,13.00
2017-11-30T20:07:49.161Z,17.27
2017-11-30T20:10:16.673Z,16.07
2017-11-30T20:12:44.128Z,13.40
2017-11-30T20:15:11.591Z,13.53
2017-11-30T20:17:39.101Z,13.13
2017-11-30T20:20:06.635Z,14.07
2017-11-30T20:22:34.139Z,13.03
2017-11-30T20:25:01.656Z,14.30
2017-11-30T20:27:29.130Z,14.20
2017-11-30T20:29:56.615Z,11.20
2017-11-30T20:32:24.103Z,11.87
2017-11-30T20:34:51.587Z,14.13
2017-11-30T20:37:19.122Z,11.90
2017-11-30T20:39:46.569Z,12.87
2017-11-30T20:42:14.027Z,14.30
2017-11-30T20:44:41.500Z,12.50
2017-11-30T20:47:08.955Z,11.93
2017-11-30T20:49:36.431Z,11.47
2017-11-30T20:52:03.930Z,11.93
2017-11-30T20:54:31.397Z,11.73
2017-11-30T20:56:58.934Z,11.63
2017-11-30T20:59:26.409Z,14.97
2017-11-30T21:01:54.824Z,12.47
2017-11-30T21:04:22.337Z,13.43
2017-11-30T21:06:49.866Z,12.63
2017-11-30T21:09:17.356Z,12.53
2017-11-30T21:11:44.859Z,12.33
2017-11-30T21:14:12.392Z,11.77
2017-11-30T21:16:39.903Z,13.10
2017-11-30T21:19:07.389Z,10.80
2017-11-30T21:21:34.852Z,14.47
2017-11-30T21:24:02.366Z,12.83
2017-11-30T21:26:29.844Z,13.20
2017-11-30T21:28:57.377Z,12.27
2017-11-30T21:31:24.937Z,13.60
2017-11-30T21:33:52.549Z,14.50
2017-11-30T21:36:20.097Z,13.10
2017-11-30T21:38:47.578Z,11.93
2017-11-30T21:41:15.057Z,12.97
2017-11-30T21:43:42.531Z,13.20
2017-11-30T21:46:10.008Z,13.10
2017-11-30T21:48:37.594Z,13.10
2017-11-30T21:51:05.247Z,13.10
2017-11-30T21:53:32.759Z,13.60
2017-11-30T21:56:00.308Z,11.43
2017-11-30T21:58:27.777Z,11.80
2017-11-30T22:00:55.246Z,17.33
2017-11-30T22:03:22.766Z,13.67
2017-11-30T22:05:50.226Z,17.37
2017-11-30T22:08:17.683Z,13.50
2017-11-30T22:10:45.176Z,15.27
2017-11-30T22:13:12.653Z,15.13
2017-11-30T22:15:40.147Z,14.33
2017-11-30T22:18:07.669Z,14.83
2017-11-30T22:20:35.131Z,12.53
2017-11-30T22:23:02.598Z,15.83
2017-11-30T22:25:30.095Z,12.30
2017-11-30T22:27:57.564Z,15.30
2017-11-30T22:30:25.056Z,16.17
2017-11-30T22:32:52.616Z,13.80
2017-11-30T22:35:20.118Z,14.30
2017-11-30T22:37:47.641Z,15.10
2017-11-30T22:40:15.190Z,14.67
2017-11-30T22:42:42.665Z,15.50
2017-11-30T22:45:10.124Z,15.20
2017-11-30T22:47:37.616Z,17.80
2017-11-30T22:50:05.154Z,17.07
2017-11-30T22:52:32.624Z,15.90
2017-11-30T22:55:00.107Z,13.97
2017-11-30T22:57:27.584Z,12.90
2017-11-30T22:59:55.064Z,13.33
2017-11-30T23:02:22.544Z,17.10
2017-11-30T23:04:50.015Z,14.63
2017-11-30T23:07:17.502Z,19.40
2017-11-30T23:09:44.980Z,14.43
2017-11-30T23:12:12.500Z,13.23
2017-11-30T23:14:39.956Z,15.70
2017-11-30T23:17:07.468Z,16.60
2017-11-30T23:19:34.936Z,16.83
2017-11-30T23:22:02.403Z,13.60
2017-11-30T23:24:29.907Z,16.75
2017-11-30T23:26:57.387Z,14.80
2017-11-30T23:29:24.855Z,13.63
2017-11-30T23:31:52.331Z,12.97
2017-11-30T23:34:19.812Z,12.90
2017-11-30T23:36:47.299Z,17.43
2017-11-30T23:39:14.777Z,14.40
2017-11-30T23:41:42.242Z,16.80
2017-11-30T23:44:09.726Z,13.47
2017-11-30T23:46:37.332Z,14.77
2017-11-30T23:49:04.867Z,14.63
2017-11-30T23:51:32.347Z,13.90
2017-11-30T23:53:59.884Z,14.57
2017-11-30T23:56:27.404Z,16.07
2017-11-30T23:58:54.869Z,13.73
